createdAt,value
2017-06-23T00:00:03.010Z,87.24
2017-06-23T00:05:03.064Z,86.85
2017-06-23T00:10:03.469Z,86.85
2017-06-23T00:15:02.822Z,86.57
2017-06-23T00:20:03.211Z,86.33
2017-06-23T00:25:03.677Z,86.33
2017-06-23T00:30:02.942Z,85.75
2017-06-23T00:35:03.426Z,84.89
2017-06-23T00:40:02.772Z,84.89
2017-06-23T00:45:03.159Z,85.47
2017-06-23T00:50:03.509Z,85.08
2017-06-23T00:55:02.809Z,85.18
2017-06-23T01:00:03.066Z,84.8
2017-06-23T01:05:02.597Z,84.41
2017-06-23T01:10:02.933Z,84.89
2017-06-23T01:15:03.399Z,85.08
2017-06-23T01:20:02.842Z,84.7
2017-06-23T01:25:03.386Z,85.28
2017-06-23T01:30:02.857Z,84.8
2017-06-23T01:35:03.223Z,85.28
2017-06-23T01:40:02.754Z,84.89
2017-06-23T01:45:03.251Z,84.95
2017-06-23T01:50:02.692Z,84.37
2017-06-23T01:55:03.026Z,84.47
2017-06-23T02:00:03.489Z,84.47
2017-06-23T02:05:02.942Z,84.47
2017-06-23T02:10:03.449Z,84.56
2017-06-23T02:15:02.787Z,84.95
2017-06-23T02:20:03.268Z,84.95
2017-06-23T02:25:02.760Z,85.04
2017-06-23T02:30:03.214Z,85.42
2017-06-23T02:35:02.746Z,85.42
2017-06-23T02:40:03.243Z,86
2017-06-23T02:45:02.571Z,86.48
2017-06-23T02:50:03.073Z,86.96
2017-06-23T02:55:03.413Z,87.44
2017-06-23T03:00:02.656Z,87.73
2017-06-23T03:05:02.985Z,87.92
2017-06-23T03:10:03.448Z,88.02
2017-06-23T03:15:02.907Z,88.02
2017-06-23T03:20:03.373Z,88.02
2017-06-23T03:25:02.702Z,87.73
2017-06-23T03:30:03.128Z,87.44
2017-06-23T03:35:03.548Z,87.05
2017-06-23T03:40:03.022Z,87.05
2017-06-23T03:45:03.387Z,86.68
2017-06-23T03:50:02.750Z,86.58
2017-06-23T03:55:03.174Z,86.68
2017-06-23T04:00:03.646Z,86.87
2017-06-23T04:05:02.947Z,86.87
2017-06-23T04:10:03.517Z,86.96
2017-06-23T04:15:02.993Z,86.96
2017-06-23T04:20:03.278Z,86.96
2017-06-23T04:25:03.590Z,86.96
2017-06-23T04:30:03.073Z,87.35
2017-06-23T04:35:03.360Z,87.54
2017-06-23T04:40:02.705Z,87.68
2017-06-23T04:45:03.159Z,88.16
2017-06-23T04:50:03.461Z,87.87
2017-06-23T04:55:02.856Z,87.58
2017-06-23T05:00:03.159Z,87.58
2017-06-23T05:05:02.576Z,87.39
2017-06-23T05:10:02.941Z,87.49
2017-06-23T05:15:03.344Z,87.49
2017-06-23T05:20:02.824Z,87.92
2017-06-23T05:25:03.229Z,89.01
2017-06-23T05:30:02.692Z,89.21
2017-06-23T05:35:03.193Z,89.5
2017-06-23T05:40:02.743Z,90.02
2017-06-23T05:45:03.242Z,90.79
2017-06-23T05:50:02.583Z,92.18
2017-06-23T05:55:02.917Z,91.31
2017-06-23T06:00:03.308Z,91.22
2017-06-23T06:05:02.729Z,90.73
2017-06-23T06:10:03.121Z,90.55
2017-06-23T06:15:03.460Z,91.65
2017-06-23T06:20:02.896Z,92.8
2017-06-23T06:25:03.364Z,93.04
2017-06-23T06:30:02.903Z,94.78
2017-06-23T06:35:03.384Z,94.92
2017-06-23T06:40:02.653Z,96.03
2017-06-23T06:45:03.167Z,97.86
2017-06-23T06:50:03.553Z,98.54
2017-06-23T06:55:02.945Z,99.16
2017-06-23T07:00:03.262Z,99.02
2017-06-23T07:05:02.712Z,99.84
2017-06-23T07:10:03.298Z,99.99
2017-06-23T07:15:02.625Z,99.99
2017-06-23T07:20:02.949Z,99.99
2017-06-23T07:25:03.431Z,99.99
2017-06-23T07:30:02.793Z,99.99
2017-06-23T07:35:03.281Z,99.99
2017-06-23T07:40:02.645Z,99.99
2017-06-23T07:45:03.075Z,99.99
2017-06-23T07:50:03.383Z,99.99
2017-06-23T07:55:02.819Z,99.99
2017-06-23T08:00:03.134Z,99.99
2017-06-23T08:05:02.687Z,99.99
2017-06-23T08:10:03.298Z,99.99
2017-06-23T08:15:02.763Z,99.99
2017-06-23T08:20:03.071Z,99.99
2017-06-23T08:25:03.497Z,99.99
2017-06-23T08:30:03.067Z,99.99
2017-06-23T08:35:03.435Z,99.99
2017-06-23T08:40:02.977Z,99.99
2017-06-23T08:45:03.345Z,99.99
2017-06-23T08:50:02.655Z,99.99
2017-06-23T08:55:03.122Z,99.99
2017-06-23T09:00:02.691Z,99.99
2017-06-23T09:05:03.197Z,99.99
2017-06-23T09:10:02.749Z,99.99
2017-06-23T09:15:03.260Z,99.99
2017-06-23T09:20:02.742Z,99.99
2017-06-23T09:25:03.483Z,99.99
2017-06-23T09:30:02.889Z,99.99
2017-06-23T09:35:03.320Z,99.99
2017-06-23T09:40:02.983Z,99.99
2017-06-23T09:45:03.344Z,99.99
2017-06-23T09:50:02.834Z,99.99
2017-06-23T09:55:03.326Z,99.99
2017-06-23T10:00:02.783Z,99.99
2017-06-23T10:05:03.255Z,99.99
2017-06-23T10:10:02.920Z,99.99
2017-06-23T10:15:03.443Z,99.99
2017-06-23T10:20:02.905Z,99.99
2017-06-23T10:25:03.578Z,99.99
2017-06-23T10:30:03.132Z,99.99
2017-06-23T10:35:02.725Z,99.99
2017-06-23T10:40:02.997Z,99.99
2017-06-23T10:45:02.751Z,99.99
2017-06-23T10:50:03.259Z,99.95
2017-06-23T10:55:02.883Z,96.94
2017-06-23T11:00:02.724Z,99.07
2017-06-23T11:05:03.200Z,99.27
2017-06-23T11:10:03.288Z,96.98
2017-06-23T11:15:03.164Z,99.22
2017-06-23T11:20:02.973Z,98.78
2017-06-23T11:25:02.920Z,94.22
2017-06-23T11:30:03.117Z,95.92
2017-06-23T11:35:02.823Z,89.69
2017-06-23T11:40:02.775Z,88.04
2017-06-23T11:45:03.001Z,83.18
2017-06-23T11:50:02.629Z,80.36
2017-06-23T11:55:03.408Z,82.28
2017-06-23T12:00:03.391Z,85
2017-06-23T12:05:03.378Z,83.04
2017-06-23T12:10:03.526Z,81.39
2017-06-23T12:15:03.573Z,78.66
2017-06-23T12:20:03.013Z,77.2
2017-06-23T12:25:03.036Z,75.7
2017-06-23T12:30:02.845Z,74.05
2017-06-23T12:35:02.956Z,76.15
2017-06-23T12:40:02.904Z,75.21
2017-06-23T12:45:02.581Z,73.15
2017-06-23T12:50:02.994Z,72.04
2017-06-23T12:55:02.614Z,74.5
2017-06-23T13:00:02.706Z,74.98
2017-06-23T13:05:02.799Z,76.6
2017-06-23T13:10:02.607Z,77.14
2017-06-23T13:15:02.605Z,77.18
2017-06-23T13:20:03.472Z,75.34
2017-06-23T13:25:02.662Z,74.18
2017-06-23T13:30:02.592Z,72.11
2017-06-23T13:35:02.753Z,73.08
2017-06-23T13:40:02.987Z,73.33
2017-06-23T13:45:02.681Z,73.46
2017-06-23T13:50:02.871Z,72.91
2017-06-23T13:55:03.141Z,74.33
2017-06-23T14:00:03.489Z,74.62
2017-06-23T14:05:02.964Z,73.07
2017-06-23T14:10:03.350Z,71.74
2017-06-23T14:15:03.445Z,72.77
2017-06-23T14:20:03.045Z,72.67
2017-06-23T14:25:02.654Z,73.55
2017-06-23T14:30:02.831Z,73.9
2017-06-23T14:35:03.047Z,73.68
2017-06-23T14:40:03.229Z,72.61
2017-06-23T14:45:03.135Z,73.65
2017-06-23T14:50:03.307Z,72.67
2017-06-23T14:55:02.604Z,72.87
2017-06-23T15:00:03.234Z,73
2017-06-23T15:05:03.317Z,73
2017-06-23T15:10:02.661Z,73.3
2017-06-23T15:15:02.825Z,73.8
2017-06-23T15:20:03.274Z,74.84
2017-06-23T15:25:03.450Z,75.71
2017-06-23T15:30:03.128Z,76.78
2017-06-23T15:35:02.624Z,77.94
2017-06-23T15:40:03.322Z,76.95
2017-06-23T15:45:03.464Z,76.75
2017-06-23T15:50:03.219Z,76.07
2017-06-23T15:55:03.445Z,75.88
2017-06-23T16:00:03.154Z,75.82
2017-06-23T16:05:02.961Z,75.67
2017-06-23T16:10:02.898Z,74.95
2017-06-23T16:15:02.600Z,76.17
2017-06-23T16:20:03.471Z,77.82
2017-06-23T16:25:03.415Z,78.64
2017-06-23T16:30:03.314Z,79.02
2017-06-23T16:35:02.983Z,79.08
2017-06-23T16:40:02.845Z,80.6
2017-06-23T16:45:02.733Z,81.08
2017-06-23T16:50:03.157Z,82.05
2017-06-23T16:55:02.818Z,82.63
2017-06-23T17:00:03.556Z,82.63
2017-06-23T17:05:02.875Z,82.63
2017-06-23T17:10:03.413Z,82.3
2017-06-23T17:15:02.827Z,83.72
2017-06-23T17:20:03.281Z,85.03
2017-06-23T17:25:02.675Z,86.48
2017-06-23T17:30:03.134Z,87.7
2017-06-23T17:35:03.474Z,88.57
2017-06-23T17:40:02.895Z,89
2017-06-23T17:45:03.272Z,88.13
2017-06-23T17:50:02.705Z,89.05
2017-06-23T17:55:03.230Z,89.05
2017-06-23T18:00:03.540Z,89.44
2017-06-23T18:05:02.975Z,90.26
2017-06-23T18:10:02.601Z,92
2017-06-23T18:15:03.127Z,93.41
2017-06-23T18:20:02.730Z,94.62
2017-06-23T18:25:03.415Z,95.88
2017-06-23T18:30:02.554Z,97.47
2017-06-23T18:35:02.932Z,99.11
2017-06-23T18:40:03.213Z,99.99
2017-06-23T18:45:03.053Z,99.99
2017-06-23T18:50:02.979Z,99.99
2017-06-23T18:55:03.028Z,99.99
2017-06-23T19:00:03.575Z,99.99
2017-06-23T19:05:03.150Z,99.99
2017-06-23T19:10:02.653Z,99.99
2017-06-23T19:15:02.970Z,99.99
2017-06-23T19:20:03.324Z,99.99
2017-06-23T19:25:02.632Z,99.99
2017-06-23T19:30:03.021Z,99.99
2017-06-23T19:35:03.463Z,99.99
2017-06-23T19:40:02.871Z,99.99
2017-06-23T19:45:03.240Z,99.99
2017-06-23T19:50:02.611Z,99.99
2017-06-23T19:55:03.334Z,99.99
2017-06-23T20:00:02.738Z,99.99
2017-06-23T20:05:03.064Z,99.99
2017-06-23T20:10:03.401Z,99.99
2017-06-23T20:15:02.820Z,99.99
2017-06-23T20:20:03.269Z,99.99
2017-06-23T20:25:02.724Z,99.99
2017-06-23T20:30:03.094Z,99.99
2017-06-23T20:35:03.455Z,99.99
2017-06-23T20:40:02.917Z,99.99
2017-06-23T20:45:03.308Z,99.99
2017-06-23T20:50:02.717Z,99.99
2017-06-23T20:55:03.162Z,99.99
2017-06-23T21:00:02.679Z,99.99
2017-06-23T21:05:02.967Z,99.99
2017-06-23T21:10:03.396Z,99.99
2017-06-23T21:15:02.719Z,99.99
2017-06-23T21:20:03.157Z,99.99
2017-06-23T21:25:03.557Z,99.99
2017-06-23T21:30:02.995Z,99.99
2017-06-23T21:35:03.443Z,99.99
2017-06-23T21:40:02.837Z,99.99
2017-06-23T21:45:03.186Z,99.99
2017-06-23T21:50:02.595Z,99.99
2017-06-23T21:55:02.946Z,99.99
2017-06-23T22:00:03.372Z,99.99
2017-06-23T22:05:02.817Z,99.99
2017-06-23T22:10:03.369Z,99.99
2017-06-23T22:15:02.883Z,99.99
2017-06-23T22:20:03.319Z,99.99
2017-06-23T22:25:02.857Z,99.99
2017-06-23T22:30:03.188Z,99.99
2017-06-23T22:35:02.597Z,99.99
2017-06-23T22:40:02.998Z,99.99
2017-06-23T22:45:03.402Z,99.99
2017-06-23T22:50:02.763Z,99.99
2017-06-23T22:55:03.125Z,99.99
2017-06-23T23:00:03.619Z,99.99
2017-06-23T23:05:02.870Z,99.99
2017-06-23T23:10:03.354Z,99.99
2017-06-23T23:15:02.870Z,99.99
2017-06-23T23:20:03.256Z,99.99
2017-06-23T23:25:02.706Z,99.99
2017-06-23T23:30:03.228Z,99.99
2017-06-23T23:35:03.476Z,99.99
2017-06-23T23:40:02.935Z,99.99
2017-06-23T23:45:03.273Z,99.99
2017-06-23T23:50:02.637Z,99.99
2017-06-23T23:55:02.931Z,99.99
